createdAt,value
2024-02-10T00:01:54.001Z,7.09
2024-02-10T00:06:54.290Z,6.92
2024-02-10T00:11:53.924Z,6.71
2024-02-10T00:16:54.014Z,6.55
2024-02-10T00:21:53.942Z,6.42
2024-02-10T00:26:53.922Z,6.33
2024-02-10T00:31:53.966Z,6.22
2024-02-10T00:36:54.024Z,6.08
2024-02-10T00:41:53.930Z,6.05
2024-02-10T00:46:53.955Z,5.98
2024-02-10T00:51:53.925Z,5.97
2024-02-10T00:56:53.930Z,5.97
2024-02-10T01:01:54.039Z,5.97
2024-02-10T01:06:53.887Z,5.97
2024-02-10T01:11:53.866Z,5.94
2024-02-10T01:16:53.935Z,6.02
2024-02-10T01:21:53.901Z,6.05
2024-02-10T01:26:53.887Z,6.02
2024-02-10T01:31:53.924Z,5.94
2024-02-10T01:36:53.885Z,5.82
2024-02-10T01:41:53.890Z,5.62
2024-02-10T01:46:53.920Z,5.48
2024-02-10T01:51:53.879Z,5.37
2024-02-10T01:56:53.900Z,5.23
2024-02-10T02:01:53.881Z,5.09
2024-02-10T02:06:53.888Z,4.94
2024-02-10T02:11:53.845Z,4.85
2024-02-10T02:16:53.895Z,4.78
2024-02-10T02:21:53.870Z,4.7
2024-02-10T02:26:53.851Z,4.64
2024-02-10T02:31:54.095Z,4.57
2024-02-10T02:36:53.880Z,4.48
2024-02-10T02:41:53.843Z,4.33
2024-02-10T02:46:53.904Z,4.2
2024-02-10T02:51:53.846Z,4.19
2024-02-10T02:56:53.806Z,4.19
2024-02-10T03:01:53.822Z,4.09
2024-02-10T03:06:53.903Z,3.95
2024-02-10T03:11:53.812Z,3.86
2024-02-10T03:16:53.803Z,3.8
2024-02-10T03:21:53.807Z,3.74
2024-02-10T03:26:53.798Z,3.7
2024-02-10T03:31:53.887Z,3.62
2024-02-10T03:36:53.817Z,3.55
2024-02-10T03:41:53.792Z,3.54
2024-02-10T03:46:53.802Z,3.55
2024-02-10T03:51:53.789Z,3.59
2024-02-10T03:56:53.773Z,3.57
2024-02-10T04:01:53.791Z,3.57
2024-02-10T04:06:53.802Z,3.53
2024-02-10T04:11:53.784Z,3.47
2024-02-10T04:16:54.082Z,3.36
2024-02-10T04:21:53.804Z,3.34
2024-02-10T04:26:53.833Z,3.43
2024-02-10T04:31:53.837Z,3.5
2024-02-10T04:36:53.773Z,3.49
2024-02-10T04:41:53.790Z,3.47
2024-02-10T04:46:53.845Z,3.43
2024-02-10T04:51:53.765Z,3.38
2024-02-10T04:56:53.766Z,3.38
2024-02-10T05:01:53.776Z,3.4
2024-02-10T05:06:53.748Z,3.57
2024-02-10T05:11:53.762Z,3.78
2024-02-10T05:16:53.865Z,3.9
2024-02-10T05:21:53.751Z,4.07
2024-02-10T05:26:53.768Z,4.19
2024-02-10T05:31:53.768Z,4.2
2024-02-10T05:36:53.738Z,4.2
2024-02-10T05:41:53.760Z,4.19
2024-02-10T05:46:53.833Z,4.19
2024-02-10T05:51:53.727Z,4.19
2024-02-10T05:56:53.750Z,4.1
2024-02-10T06:01:53.743Z,3.97
2024-02-10T06:06:53.744Z,3.93
2024-02-10T06:11:53.736Z,3.95
2024-02-10T06:16:53.795Z,3.93
2024-02-10T06:21:53.719Z,3.96
2024-02-10T06:26:53.704Z,3.96
2024-02-10T06:31:53.728Z,3.95
2024-02-10T06:36:53.712Z,3.92
2024-02-10T06:41:53.716Z,3.91
2024-02-10T06:46:53.851Z,3.92
2024-02-10T06:51:53.676Z,4.02
2024-02-10T06:56:53.680Z,4.07
2024-02-10T07:01:53.820Z,4.11
2024-02-10T07:06:53.694Z,4.19
2024-02-10T07:11:53.702Z,4.19
2024-02-10T07:16:53.727Z,4.33
2024-02-10T07:21:53.707Z,4.46
2024-02-10T07:26:53.665Z,4.65
2024-02-10T07:31:53.741Z,4.84
2024-02-10T07:36:53.682Z,5.04
2024-02-10T07:41:53.907Z,5.42
2024-02-10T07:46:53.691Z,5.82
2024-02-10T07:51:53.694Z,6.2
2024-02-10T07:56:53.692Z,6.59
2024-02-10T08:01:53.702Z,7
2024-02-10T08:06:53.662Z,7.52
2024-02-10T08:11:53.670Z,7.92
2024-02-10T08:16:53.649Z,8.29
2024-02-10T08:21:53.629Z,8.67
2024-02-10T08:26:53.649Z,8.94
2024-02-10T08:31:53.664Z,9.09
2024-02-10T08:36:53.616Z,9.23
2024-02-10T08:41:53.630Z,9.38
2024-02-10T08:46:53.635Z,9.62
2024-02-10T08:56:53.636Z,9.86
2024-02-10T09:01:53.595Z,9.93
2024-02-10T09:06:53.671Z,9.99
2024-02-10T09:11:53.612Z,10.1
2024-02-10T09:16:53.601Z,10.21
2024-02-10T09:21:53.601Z,10.32
2024-02-10T09:31:53.862Z,10.33
2024-02-10T09:41:53.574Z,10.28
2024-02-10T09:56:53.548Z,10.12
2024-02-10T10:01:53.583Z,10.07
2024-02-10T10:06:53.553Z,10.05
2024-02-10T12:26:53.373Z,11.75
2024-02-10T12:41:53.374Z,12.06
2024-02-10T13:01:53.412Z,11.96
2024-02-10T13:06:53.339Z,11.84
2024-02-10T13:11:53.362Z,11.74
2024-02-10T13:16:55.172Z,11.66
2024-02-10T13:21:53.358Z,11.61
2024-02-10T13:26:53.330Z,11.54
2024-02-10T13:31:53.403Z,11.54
2024-02-10T13:36:53.362Z,11.54
2024-02-10T13:41:53.337Z,11.65
2024-02-10T13:46:53.345Z,11.65
2024-02-10T13:51:53.338Z,11.67
2024-02-10T13:56:53.325Z,11.65
2024-02-10T14:01:53.324Z,11.65
2024-02-10T14:06:55.027Z,11.65
2024-02-10T14:11:53.298Z,11.65
2024-02-10T14:16:53.299Z,11.62
2024-02-10T14:21:53.274Z,11.53
2024-02-10T14:26:53.481Z,11.49
2024-02-10T14:31:53.817Z,11.41
2024-02-10T14:36:53.310Z,11.39
2024-02-10T14:41:53.404Z,11.34
2024-02-10T14:46:53.284Z,11.22
2024-02-10T14:51:53.277Z,11.15
2024-02-10T14:56:53.273Z,11.02
2024-02-10T15:01:53.278Z,10.96
2024-02-10T15:06:53.243Z,10.9
2024-02-10T15:11:53.264Z,10.79
2024-02-10T15:16:53.273Z,10.7
2024-02-10T15:21:53.224Z,10.64
2024-02-10T15:26:53.216Z,10.59
2024-02-10T15:31:53.243Z,10.5
2024-02-10T15:36:53.216Z,10.38
2024-02-10T15:41:53.190Z,10.28
2024-02-10T15:46:53.286Z,10.18
2024-02-10T15:51:53.223Z,10.07
2024-02-10T15:56:53.217Z,9.96
2024-02-10T16:01:53.262Z,9.84
2024-02-10T16:06:53.173Z,9.77
2024-02-10T16:11:53.168Z,9.77
2024-02-10T16:16:53.184Z,9.58
2024-02-10T16:21:53.178Z,9.42
2024-02-10T16:26:53.180Z,9.29
2024-02-10T16:31:53.189Z,9.19
2024-02-10T16:36:53.166Z,9.11
2024-02-10T16:46:53.144Z,8.92
2024-02-10T16:51:53.176Z,8.78
2024-02-10T16:56:53.125Z,8.67
2024-02-10T17:01:53.181Z,8.6
2024-02-10T17:06:53.119Z,8.56
2024-02-10T17:11:53.101Z,8.5
2024-02-10T17:16:53.150Z,8.42
2024-02-10T17:21:53.074Z,8.39
2024-02-10T17:26:53.144Z,8.24
2024-02-10T17:31:53.161Z,8.19
2024-02-10T17:36:53.094Z,8.08
2024-02-10T17:41:53.115Z,7.96
2024-02-10T17:46:53.189Z,7.92
2024-02-10T17:51:53.098Z,7.91
2024-02-10T17:56:53.090Z,7.82
2024-02-10T18:01:53.149Z,7.78
2024-02-10T18:06:53.141Z,7.8
2024-02-10T18:11:53.062Z,7.82
2024-02-10T18:16:53.104Z,7.79
2024-02-10T18:21:53.093Z,7.74
2024-02-10T18:26:53.111Z,7.74
2024-02-10T18:31:53.077Z,7.69
2024-02-10T18:36:53.032Z,7.61
2024-02-10T18:41:53.064Z,7.49
2024-02-10T18:46:53.069Z,7.39
2024-02-10T18:51:53.040Z,7.35
2024-02-10T18:56:53.093Z,7.3
2024-02-10T19:01:53.040Z,7.25
2024-02-10T19:06:53.047Z,7.21
2024-02-10T19:11:53.025Z,7.17
2024-02-10T19:16:53.030Z,7.14
2024-02-10T19:21:53.032Z,7.11
2024-02-10T19:26:53.084Z,7.09
2024-02-10T19:31:53.017Z,7.1
2024-02-10T19:36:53.037Z,7.1
2024-02-10T19:41:53.012Z,7.02
2024-02-10T19:46:53.002Z,7
2024-02-10T19:51:53.020Z,7
2024-02-10T19:56:53.089Z,7
2024-02-10T20:01:53.053Z,7
2024-02-10T20:06:53.044Z,7
2024-02-10T20:11:52.975Z,7
2024-02-10T20:16:53.022Z,6.98
2024-02-10T20:21:52.980Z,6.98
2024-02-10T20:26:52.972Z,6.94
2024-02-10T20:31:52.988Z,6.91
2024-02-10T20:36:52.958Z,6.92
2024-02-10T20:41:53.003Z,6.9
2024-02-10T20:46:52.957Z,6.85
2024-02-10T20:51:52.969Z,6.85
2024-02-10T20:56:52.951Z,6.85
2024-02-10T21:01:53.024Z,6.83
2024-02-10T21:06:52.923Z,6.83
2024-02-10T21:11:52.952Z,6.85
2024-02-10T21:16:52.978Z,6.85
2024-02-10T21:21:52.903Z,6.82
2024-02-10T21:26:52.932Z,6.81
2024-02-10T21:31:52.958Z,6.86
2024-02-10T21:36:52.928Z,6.96
2024-02-10T21:41:52.914Z,6.94
2024-02-10T21:46:52.948Z,6.9
2024-02-10T21:51:52.927Z,6.86
2024-02-10T21:56:52.880Z,6.8
2024-02-10T22:01:53.113Z,6.78
2024-02-10T22:06:52.881Z,6.73
2024-02-10T22:11:52.870Z,6.65
2024-02-10T22:16:52.975Z,6.59
2024-02-10T22:21:52.863Z,6.58
2024-02-10T22:26:52.849Z,6.5
2024-02-10T22:31:52.892Z,6.42
2024-02-10T22:36:52.863Z,6.33
2024-02-10T22:41:52.839Z,6.26
2024-02-10T22:46:58.700Z,6.16
2024-02-10T22:51:52.850Z,6.05
2024-02-10T22:56:52.818Z,5.97
2024-02-10T23:01:52.964Z,5.87
2024-02-10T23:06:53.063Z,5.78
2024-02-10T23:11:52.844Z,5.67
2024-02-10T23:16:52.874Z,5.67
2024-02-10T23:21:52.809Z,5.66
2024-02-10T23:26:52.837Z,5.67
2024-02-10T23:31:52.914Z,5.67
2024-02-10T23:36:52.834Z,5.7
2024-02-10T23:41:52.834Z,5.67
2024-02-10T23:46:52.833Z,5.63
2024-02-10T23:51:52.801Z,5.7
2024-02-10T23:56:52.787Z,5.94
